createdAt,value
2023-05-20T00:01:42.616Z,100025.50
2023-05-20T00:04:12.581Z,100021.91
2023-05-20T00:06:42.746Z,100017.75
2023-05-20T00:09:12.573Z,100018.16
2023-05-20T00:11:42.709Z,100015.22
2023-05-20T00:14:13.030Z,100011.69
2023-05-20T00:16:43.451Z,100010.03
2023-05-20T00:19:13.220Z,100001.09
2023-05-20T00:21:43.001Z,99997.13
2023-05-20T00:24:17.573Z,99997.13
2023-05-20T00:26:47.325Z,99994.41
2023-05-20T00:29:17.401Z,99989.84
2023-05-20T00:31:47.267Z,99993.38
2023-05-20T00:34:16.997Z,100003.97
2023-05-20T00:36:47.165Z,99997.53
2023-05-20T00:39:18.007Z,99992.13
2023-05-20T00:41:48.107Z,99980.25
2023-05-20T00:44:19.909Z,99972.97
2023-05-20T00:46:50.269Z,99964.03
2023-05-20T00:49:21.170Z,99952.41
2023-05-20T00:51:50.880Z,99932.66
2023-05-20T00:54:23.296Z,99932.41
2023-05-20T00:56:56.391Z,99934.28
2023-05-20T00:59:26.106Z,99935.94
2023-05-20T01:01:55.943Z,99938.66
2023-05-20T01:04:26.003Z,99931.38
2023-05-20T01:06:57.644Z,99926.81
2023-05-20T01:09:28.370Z,99940.09
2023-05-20T01:12:18.881Z,99955.91
2023-05-20T01:14:52.806Z,99968.38
2023-05-20T01:17:25.975Z,99963.81
2023-05-20T01:19:58.092Z,99967.13
2023-05-20T01:22:31.379Z,99972.53
2023-05-20T01:25:01.042Z,99971.47
2023-05-20T01:27:32.304Z,99974.41
2023-05-20T01:30:02.371Z,99987.47
2023-05-20T01:32:42.692Z,100002.28
2023-05-20T01:35:12.684Z,100005.16
2023-05-20T01:37:43.534Z,100007.84
2023-05-20T01:40:14.523Z,100010.78
2023-05-20T01:42:45.569Z,100011.38
2023-05-20T01:45:15.275Z,100018.66
2023-05-20T01:47:47.573Z,100014.09
2023-05-20T01:50:17.867Z,100005.16
2023-05-20T01:52:47.957Z,100017.91
2023-05-20T01:55:17.731Z,100015.22
2023-05-20T01:57:47.916Z,100011.03
2023-05-20T02:00:17.768Z,100015.22
2023-05-20T02:02:47.628Z,100010.78
2023-05-20T02:05:18.203Z,100011.78
2023-05-20T02:07:48.008Z,100005.56
2023-05-20T02:10:17.849Z,100006.41
2023-05-20T02:12:50.370Z,100007.28
2023-05-20T02:15:20.525Z,100005.00
2023-05-20T02:17:50.985Z,100006.88
2023-05-20T02:20:21.091Z,99996.69
2023-05-20T02:22:51.157Z,100004.22
2023-05-20T02:25:20.988Z,100000.06
2023-05-20T02:27:51.360Z,100000.88
2023-05-20T02:30:21.614Z,100005.00
2023-05-20T02:32:51.307Z,99994.00
2023-05-20T02:35:25.554Z,99985.06
2023-05-20T02:37:55.268Z,99991.47
2023-05-20T02:40:25.363Z,99983.19
2023-05-20T02:42:55.068Z,99973.84
2023-05-20T02:45:24.824Z,99970.72
2023-05-20T02:47:54.539Z,99963.63
2023-05-20T02:50:24.260Z,99946.56
2023-05-20T02:52:53.978Z,99947.81
2023-05-20T02:55:25.688Z,99942.41
2023-05-20T02:57:55.511Z,99937.00
2023-05-20T03:00:26.536Z,99932.59
2023-05-20T03:02:56.241Z,99928.47
2023-05-20T03:05:27.446Z,99937.56
2023-05-20T03:07:58.385Z,99939.44
2023-05-20T03:10:28.093Z,99945.22
2023-05-20T03:12:59.323Z,99951.63
2023-05-20T03:15:32.788Z,99962.44
2023-05-20T03:18:02.622Z,99948.47
2023-05-20T03:20:34.574Z,99948.47
2023-05-20T03:23:04.581Z,99946.22
2023-05-20T03:25:34.685Z,99940.19
2023-05-20T03:28:04.605Z,99952.47
2023-05-20T03:30:34.467Z,99941.03
2023-05-20T03:33:04.475Z,99938.53
2023-05-20T03:35:34.636Z,99939.53
2023-05-20T03:38:04.508Z,99939.75
2023-05-20T03:40:37.405Z,99937.22
2023-05-20T03:43:07.165Z,99935.34
2023-05-20T03:45:37.809Z,99934.22
2023-05-20T03:48:08.637Z,99924.28
2023-05-20T03:50:41.226Z,99907.63
2023-05-20T03:53:11.685Z,99924.28
2023-05-20T03:55:42.726Z,99922.88
2023-05-20T03:58:12.860Z,99914.78
2023-05-20T04:00:43.022Z,99918.44
2023-05-20T04:03:13.680Z,99911.41
2023-05-20T04:05:44.134Z,99902.41
2023-05-20T04:08:15.403Z,99902.22
2023-05-20T04:10:46.365Z,99895.84
2023-05-20T04:13:16.761Z,99903.28
2023-05-20T04:15:47.174Z,99893.34
2023-05-20T04:18:16.890Z,99899.47
2023-05-20T04:20:47.695Z,99906.00
2023-05-20T04:23:18.191Z,99899.91
2023-05-20T04:25:48.589Z,99903.25
2023-05-20T04:28:18.329Z,99903.66
2023-05-20T04:30:48.567Z,99905.75
2023-05-20T04:33:20.466Z,99897.84
2023-05-20T04:35:50.162Z,99898.84
2023-05-20T04:38:19.907Z,99902.97
2023-05-20T04:40:49.610Z,99901.75
2023-05-20T04:43:19.405Z,99902.34
2023-05-20T04:45:49.749Z,99910.53
2023-05-20T04:48:22.193Z,99906.97
2023-05-20T04:50:52.541Z,99907.81
2023-05-20T04:53:23.513Z,99912.19
2023-05-20T04:55:59.530Z,99904.06
2023-05-20T04:58:32.306Z,99904.25
2023-05-20T05:01:03.415Z,99901.13
2023-05-20T05:03:37.189Z,99899.19
2023-05-20T05:06:08.308Z,99900.09
2023-05-20T05:08:38.087Z,99905.03
2023-05-20T05:11:10.807Z,99901.94
2023-05-20T05:13:40.552Z,99891.09
2023-05-20T05:16:10.349Z,99900.03
2023-05-20T05:18:40.485Z,99889.78
2023-05-20T05:21:10.326Z,99895.72
2023-05-20T05:23:40.748Z,99902.56
2023-05-20T05:26:10.547Z,99905.72
2023-05-20T05:28:40.296Z,99900.94
2023-05-20T05:31:10.551Z,99902.09
2023-05-20T05:33:40.305Z,99892.34
2023-05-20T05:36:10.332Z,99886.13
2023-05-20T05:38:40.706Z,99877.19
2023-05-20T05:41:10.449Z,99878.63
2023-05-20T05:43:40.166Z,99870.34
2023-05-20T05:46:11.628Z,99865.44
2023-05-20T05:48:41.822Z,99874.38
2023-05-20T05:51:12.564Z,99868.63
2023-05-20T05:53:42.333Z,99862.16
2023-05-20T05:56:12.284Z,99857.84
2023-05-20T05:58:42.454Z,99866.88
2023-05-20T06:01:12.896Z,99872.16
2023-05-20T06:03:42.787Z,99880.19
2023-05-20T06:06:15.880Z,99884.78
2023-05-20T06:08:45.561Z,99881.25
2023-05-20T06:11:15.258Z,99875.25
2023-05-20T06:13:46.036Z,99873.72
2023-05-20T06:16:15.747Z,99878.16
2023-05-20T06:18:45.930Z,99872.69
2023-05-20T06:21:18.391Z,99867.78
2023-05-20T06:23:48.069Z,99864.63
2023-05-20T06:26:20.704Z,99873.28
2023-05-20T06:28:50.794Z,99862.53
2023-05-20T06:31:21.842Z,99868.09
2023-05-20T06:33:51.537Z,99863.81
2023-05-20T06:36:21.266Z,99864.34
2023-05-20T06:38:50.961Z,99865.41
2023-05-20T06:41:21.022Z,99873.72
2023-05-20T06:43:52.594Z,99866.06
2023-05-20T06:46:23.142Z,99873.13
2023-05-20T06:48:53.284Z,99884.53
2023-05-20T06:51:23.014Z,99891.78
2023-05-20T06:53:53.325Z,99885.00
2023-05-20T06:56:24.425Z,99891.91
2023-05-20T06:58:54.560Z,99895.16
2023-05-20T07:01:24.287Z,99892.88
2023-05-20T07:03:54.127Z,99895.50
2023-05-20T07:06:25.468Z,99894.31
2023-05-20T07:08:55.569Z,99889.50
2023-05-20T07:11:25.275Z,99890.31
2023-05-20T07:13:55.241Z,99893.13
2023-05-20T07:16:25.157Z,99895.00
2023-05-20T07:18:57.747Z,99894.19
2023-05-20T07:21:29.398Z,99893.47
2023-05-20T07:23:59.170Z,99908.06
2023-05-20T07:26:29.057Z,99897.31
2023-05-20T07:28:59.189Z,99891.63
2023-05-20T07:31:29.713Z,99886.06
2023-05-20T07:33:59.712Z,99888.75
2023-05-20T07:36:48.023Z,99877.56
2023-05-20T07:39:18.094Z,99870.66
2023-05-20T07:41:47.834Z,99862.69
2023-05-20T07:44:17.603Z,99864.56
2023-05-20T07:46:47.457Z,99868.31
2023-05-20T07:49:17.250Z,99870.81
2023-05-20T07:51:47.937Z,99853.59
2023-05-20T07:54:18.654Z,99851.91
2023-05-20T07:56:49.482Z,99859.44
2023-05-20T07:59:19.754Z,99862.16
2023-05-20T08:01:49.755Z,99864.19
2023-05-20T08:04:19.617Z,99856.31
2023-05-20T08:06:52.704Z,99852.16
2023-05-20T08:09:22.384Z,99852.16
2023-05-20T08:11:52.369Z,99851.56
2023-05-20T08:14:22.519Z,99850.44
2023-05-20T08:16:54.497Z,99843.38
2023-05-20T08:19:24.722Z,99840.91
2023-05-20T08:21:55.412Z,99839.69
2023-05-20T08:24:25.234Z,99835.53
2023-05-20T08:26:55.642Z,99829.06
2023-05-20T08:29:26.818Z,99829.06
2023-05-20T08:31:56.632Z,99836.75
2023-05-20T08:34:27.159Z,99830.59
2023-05-20T08:36:57.351Z,99827.09
2023-05-20T08:39:28.868Z,99817.94
2023-05-20T08:41:58.950Z,99816.75
2023-05-20T08:44:28.662Z,99815.06
2023-05-20T08:46:58.581Z,99821.34
2023-05-20T08:49:28.715Z,99813.44
2023-05-20T08:51:58.686Z,99806.75
2023-05-20T08:54:29.370Z,99793.44
2023-05-20T08:57:00.317Z,99791.78
2023-05-20T08:59:30.107Z,99795.13
2023-05-20T09:01:59.902Z,99784.97
2023-05-20T09:04:29.695Z,99781.88
2023-05-20T09:06:59.442Z,99773.78
2023-05-20T09:09:29.567Z,99765.56
2023-05-20T09:11:59.229Z,99763.34
2023-05-20T09:14:31.726Z,99757.13
2023-05-20T09:17:04.391Z,99764.84
2023-05-20T09:19:34.227Z,99770.16
2023-05-20T09:22:04.127Z,99774.59
2023-05-20T09:24:33.930Z,99779.19
2023-05-20T09:27:03.660Z,99774.38
2023-05-20T09:29:36.800Z,99779.63
2023-05-20T09:32:07.204Z,99768.94
2023-05-20T09:34:37.051Z,99767.00
2023-05-20T09:37:07.615Z,99758.97
2023-05-20T09:39:58.763Z,99767.06
2023-05-20T09:42:55.542Z,99768.94
2023-05-20T09:45:26.454Z,99775.41
2023-05-20T09:47:57.069Z,99796.47
2023-05-20T09:50:27.156Z,99808.94
2023-05-20T09:52:57.365Z,99820.31
2023-05-20T09:55:28.065Z,99831.16
2023-05-20T09:57:57.870Z,99839.22
2023-05-20T10:00:27.959Z,99836.66
2023-05-20T10:02:58.404Z,99837.38
2023-05-20T10:05:39.900Z,99849.19
2023-05-20T10:08:20.057Z,99855.19
2023-05-20T10:11:23.381Z,99870.28
2023-05-20T10:14:03.465Z,99870.69
2023-05-20T10:17:03.478Z,99878.56
2023-05-20T10:19:36.727Z,99893.13
2023-05-20T10:22:10.732Z,99892.50
2023-05-20T10:24:43.101Z,99897.31
2023-05-20T10:27:16.238Z,99907.47
2023-05-20T10:29:52.333Z,99909.94
2023-05-20T10:32:36.478Z,99914.59
2023-05-20T10:35:12.453Z,99914.16
2023-05-20T10:37:46.921Z,99927.81
2023-05-20T10:40:17.808Z,99947.16
2023-05-20T10:42:47.827Z,99950.44
2023-05-20T10:45:31.012Z,99952.31
2023-05-20T10:48:01.468Z,99959.59
2023-05-20T10:50:36.471Z,99966.47
2023-05-20T10:53:25.299Z,99968.16
2023-05-20T10:56:02.365Z,99978.19
2023-05-20T10:58:39.480Z,99973.47
2023-05-20T11:01:10.059Z,99982.19
2023-05-20T11:03:40.494Z,99979.69
2023-05-20T11:06:20.436Z,99991.72
2023-05-20T11:08:50.610Z,100000.41
2023-05-20T11:11:20.322Z,99999.97
2023-05-20T11:13:54.343Z,100003.72
2023-05-20T11:16:24.129Z,100016.00
2023-05-20T11:18:54.003Z,100016.00
2023-05-20T11:21:23.828Z,100023.25
2023-05-20T11:23:54.836Z,100016.22
2023-05-20T11:26:24.930Z,100014.53
2023-05-20T11:28:55.071Z,100013.50
2023-05-20T11:31:26.171Z,100017.03
2023-05-20T11:33:56.069Z,100024.94
2023-05-20T11:36:27.755Z,100026.16
2023-05-20T11:39:01.280Z,100022.63
2023-05-20T11:41:31.080Z,100038.03
2023-05-20T11:44:01.919Z,100028.50
2023-05-20T11:46:32.065Z,100028.28
2023-05-20T11:49:01.790Z,100030.75
2023-05-20T11:51:32.146Z,100028.28
2023-05-20T11:54:05.648Z,100031.41
2023-05-20T11:56:44.949Z,100028.94
2023-05-20T11:59:16.319Z,100042.03
2023-05-20T12:01:46.224Z,100049.91
2023-05-20T12:04:16.856Z,100049.09
2023-05-20T12:06:47.202Z,100057.44
2023-05-20T12:09:16.956Z,100056.59
2023-05-20T12:11:46.981Z,100049.31
2023-05-20T12:14:17.097Z,100034.75
2023-05-20T12:16:47.265Z,100039.09
2023-05-20T12:19:17.894Z,100026.63
2023-05-20T12:21:49.895Z,100018.13
2023-05-20T12:24:20.998Z,100028.53
2023-05-20T12:26:51.782Z,100018.78
2023-05-20T12:29:21.448Z,100015.63
2023-05-20T12:31:51.264Z,100015.63
2023-05-20T12:34:21.436Z,100007.72
2023-05-20T12:36:51.165Z,100003.22
2023-05-20T12:39:21.241Z,100013.13
2023-05-20T12:41:51.649Z,100012.31
2023-05-20T12:44:21.330Z,100011.47
2023-05-20T12:46:54.076Z,99993.19
2023-05-20T12:49:23.809Z,99989.19
2023-05-20T12:51:53.535Z,99989.84
2023-05-20T12:54:23.323Z,99998.78
2023-05-20T12:56:53.070Z,100011.28
2023-05-20T12:59:23.029Z,100026.06
2023-05-20T13:01:52.812Z,100037.09
2023-05-20T13:04:22.904Z,100030.88
2023-05-20T13:06:52.662Z,100031.06
2023-05-20T13:09:23.942Z,100035.22
2023-05-20T13:11:53.680Z,100041.47
2023-05-20T13:14:23.715Z,100037.94
2023-05-20T13:16:57.046Z,100043.56
2023-05-20T13:19:28.323Z,100033.56
2023-05-20T13:21:58.766Z,100032.53
2023-05-20T13:24:31.547Z,100026.06
2023-05-20T13:27:03.556Z,100028.00
2023-05-20T13:29:33.445Z,100021.78
2023-05-20T13:32:03.245Z,100017.22
2023-05-20T13:34:33.404Z,100013.91
2023-05-20T13:37:08.853Z,100020.91
2023-05-20T13:39:39.144Z,100019.50
2023-05-20T13:42:09.102Z,100031.34
2023-05-20T13:44:38.821Z,100036.75
2023-05-20T13:47:08.848Z,100030.06
2023-05-20T13:49:39.295Z,100030.69
2023-05-20T13:52:09.194Z,100037.34
2023-05-20T13:54:39.086Z,100030.91
2023-05-20T13:57:10.488Z,100025.31
2023-05-20T13:59:40.249Z,100012.84
2023-05-20T14:02:11.423Z,99997.91
2023-05-20T14:04:42.597Z,99982.34
2023-05-20T14:07:12.796Z,99975.09
2023-05-20T14:09:43.276Z,99963.63
2023-05-20T14:12:13.084Z,99967.56
2023-05-20T14:14:43.800Z,99982.13
2023-05-20T14:17:13.601Z,99982.88
2023-05-20T14:19:43.292Z,99983.28
2023-05-20T14:22:16.562Z,99992.88
2023-05-20T14:24:46.352Z,99993.94
2023-05-20T14:27:17.159Z,99997.63
2023-05-20T14:29:48.087Z,99995.81
2023-05-20T14:32:17.904Z,99983.13
2023-05-20T14:34:48.093Z,99987.69
2023-05-20T14:37:18.383Z,99990.84
2023-05-20T14:39:50.402Z,99985.22
2023-05-20T14:42:20.144Z,99989.19
2023-05-20T14:44:52.667Z,99988.34
2023-05-20T14:47:24.816Z,99971.53
2023-05-20T14:49:55.363Z,99977.31
2023-05-20T14:52:25.246Z,99966.97
2023-05-20T14:54:55.012Z,99947.00
2023-05-20T14:57:24.785Z,99926.84
2023-05-20T14:59:54.799Z,99905.00
2023-05-20T15:02:24.660Z,99902.84
2023-05-20T15:04:54.416Z,99900.59
2023-05-20T15:07:24.878Z,99905.72
2023-05-20T15:09:54.640Z,99911.34
2023-05-20T15:12:24.353Z,99915.53
2023-05-20T15:14:54.728Z,99934.03
2023-05-20T15:17:24.841Z,99949.78
2023-05-20T15:19:55.289Z,99942.31
2023-05-20T15:22:27.820Z,99938.53
2023-05-20T15:24:58.181Z,99936.28
2023-05-20T15:27:27.965Z,99933.91
2023-05-20T15:30:00.431Z,99940.53
2023-05-20T15:32:30.183Z,99944.69
2023-05-20T15:34:59.979Z,99925.69
2023-05-20T15:37:30.298Z,99924.88
2023-05-20T15:40:00.403Z,99908.06
2023-05-20T15:42:30.211Z,99910.19
2023-05-20T15:45:00.545Z,99910.13
2023-05-20T15:47:30.355Z,99930.88
2023-05-20T15:50:00.833Z,99916.75
2023-05-20T15:52:30.938Z,99920.88
2023-05-20T15:55:02.245Z,99907.00
2023-05-20T15:57:32.248Z,99895.53
2023-05-20T16:00:07.787Z,99901.75
2023-05-20T16:02:37.684Z,99893.03
2023-05-20T16:05:08.557Z,99886.59
2023-05-20T16:07:38.843Z,99904.50
2023-05-20T16:10:09.175Z,99909.31
2023-05-20T16:12:38.887Z,99902.84
2023-05-20T16:15:10.085Z,99902.03
2023-05-20T16:17:40.236Z,99898.25
2023-05-20T16:20:11.534Z,99896.19
2023-05-20T16:22:42.360Z,99909.47
2023-05-20T16:25:15.772Z,99913.66
2023-05-20T16:27:45.458Z,99927.81
2023-05-20T16:30:16.064Z,99925.59
2023-05-20T16:32:45.935Z,99938.16
2023-05-20T16:35:16.695Z,99948.47
2023-05-20T16:37:46.542Z,99949.47
2023-05-20T16:40:16.343Z,99957.75
2023-05-20T16:42:46.411Z,99952.13
2023-05-20T16:45:16.204Z,99952.78
2023-05-20T16:47:47.008Z,99958.41
2023-05-20T16:50:17.197Z,99960.09
2023-05-20T16:52:46.930Z,99964.69
2023-05-20T16:55:16.695Z,99959.28
2023-05-20T16:57:47.408Z,99954.69
2023-05-20T17:00:17.832Z,99947.59
2023-05-20T17:02:48.403Z,99942.81
2023-05-20T17:05:18.227Z,99940.91
2023-05-20T17:07:48.762Z,99933.41
2023-05-20T17:10:18.497Z,99920.78
2023-05-20T17:12:48.225Z,99924.28
2023-05-20T17:15:18.049Z,99930.94
2023-05-20T17:17:48.045Z,99927.00
2023-05-20T17:20:18.803Z,99928.47
2023-05-20T17:22:48.478Z,99934.03
2023-05-20T17:25:18.273Z,99926.81
2023-05-20T17:27:48.331Z,99936.41
2023-05-20T17:30:21.665Z,99946.22
2023-05-20T17:32:55.152Z,99932.47
2023-05-20T17:35:28.207Z,99937.81
2023-05-20T17:37:58.036Z,99929.72
2023-05-20T17:40:27.805Z,99935.13
2023-05-20T17:42:57.549Z,99944.88
2023-05-20T17:45:27.747Z,99934.94
2023-05-20T17:47:57.856Z,99936.59
2023-05-20T17:50:27.661Z,99932.09
2023-05-20T17:52:57.999Z,99924.97
2023-05-20T17:55:28.192Z,99929.53
2023-05-20T17:57:59.404Z,99934.28
2023-05-20T18:00:30.505Z,99936.41
2023-05-20T18:03:00.777Z,99939.31
2023-05-20T18:05:31.110Z,99942.47
2023-05-20T18:08:03.283Z,99933.91
2023-05-20T18:10:33.249Z,99934.28
2023-05-20T18:13:03.087Z,99930.16
2023-05-20T18:15:33.013Z,99913.63
2023-05-20T18:18:04.029Z,99917.75
2023-05-20T18:20:34.812Z,99928.38
2023-05-20T18:23:04.698Z,99917.53
2023-05-20T18:25:35.616Z,99921.50
2023-05-20T18:28:07.143Z,99916.31
2023-05-20T18:30:37.157Z,99916.09
2023-05-20T18:33:07.715Z,99919.41
2023-05-20T18:35:37.535Z,99925.63
2023-05-20T18:40:38.265Z,99923.59
2023-05-20T18:43:08.055Z,99916.59
2023-05-20T18:45:38.866Z,99916.75
2023-05-20T18:48:08.711Z,99924.25
2023-05-20T18:50:39.135Z,99924.22
2023-05-20T18:53:08.815Z,99914.66
2023-05-20T18:55:41.232Z,99902.41
2023-05-20T18:58:10.903Z,99907.66
2023-05-20T19:00:41.094Z,99910.94
2023-05-20T19:03:10.815Z,99905.53
2023-05-20T19:05:40.719Z,99904.50
2023-05-20T19:08:10.893Z,99898.06
2023-05-20T19:10:41.425Z,99910.75
2023-05-20T19:13:11.152Z,99907.59
2023-05-20T19:15:41.290Z,99898.41
2023-05-20T19:18:11.463Z,99896.88
2023-05-20T19:20:41.352Z,99899.22
2023-05-20T19:23:11.084Z,99906.34
2023-05-20T19:25:40.880Z,99902.41
2023-05-20T19:28:11.049Z,99902.66
2023-05-20T19:30:40.892Z,99908.22
2023-05-20T19:33:10.746Z,99897.19
2023-05-20T19:35:40.465Z,99902.75
2023-05-20T19:38:10.882Z,99893.19
2023-05-20T19:40:40.649Z,99881.78
2023-05-20T19:43:10.323Z,99869.53
2023-05-20T19:45:41.156Z,99871.41
2023-05-20T19:48:10.918Z,99840.66
2023-05-20T19:50:40.627Z,99845.00
2023-05-20T19:53:11.160Z,99854.16
2023-05-20T19:55:40.987Z,99858.56
2023-05-20T19:58:11.868Z,99866.00
2023-05-20T20:00:41.740Z,99862.88
2023-05-20T20:03:11.468Z,99848.38
2023-05-20T20:05:41.286Z,99836.94
2023-05-20T20:08:11.617Z,99860.84
2023-05-20T20:10:41.364Z,99864.59
2023-05-20T20:13:11.582Z,99873.50
2023-05-20T20:15:42.119Z,99877.88
2023-05-20T20:18:12.264Z,99873.91
2023-05-20T20:20:42.291Z,99879.09
2023-05-20T20:23:12.709Z,99871.47
2023-05-20T20:25:43.063Z,99879.59
2023-05-20T20:28:13.114Z,99888.91
2023-05-20T20:30:43.240Z,99891.38
2023-05-20T20:33:13.180Z,99900.13
2023-05-20T20:35:44.771Z,99907.53
2023-05-20T20:38:15.600Z,99900.78
2023-05-20T20:40:47.479Z,99903.06
2023-05-20T20:43:21.145Z,99915.13
2023-05-20T20:45:54.533Z,99912.66
2023-05-20T20:48:28.404Z,99911.00
2023-05-20T20:50:58.790Z,99897.28
2023-05-20T20:53:28.551Z,99898.72
2023-05-20T20:55:58.505Z,99901.44
2023-05-20T20:58:28.695Z,99888.94
2023-05-20T21:00:59.603Z,99885.81
2023-05-20T21:03:30.045Z,99891.88
2023-05-20T21:06:00.211Z,99886.47
2023-05-20T21:08:31.822Z,99869.44
2023-05-20T21:11:01.598Z,99879.41
2023-05-20T21:13:32.295Z,99862.38
2023-05-20T21:16:04.781Z,99862.81
2023-05-20T21:18:34.522Z,99856.09
2023-05-20T21:21:04.558Z,99863.97
2023-05-20T21:23:34.222Z,99863.31
2023-05-20T21:26:03.927Z,99858.94
2023-05-20T21:28:34.510Z,99858.13
2023-05-20T21:31:04.627Z,99862.28
2023-05-20T21:33:35.958Z,99883.50
2023-05-20T21:36:06.041Z,99884.25
2023-05-20T21:38:36.123Z,99885.97
2023-05-20T21:41:05.879Z,99875.81
2023-05-20T21:43:36.199Z,99867.13
2023-05-20T21:46:07.629Z,99862.78
2023-05-20T21:48:38.087Z,99865.47
2023-05-20T21:51:07.935Z,99871.25
2023-05-20T21:53:38.064Z,99885.00
2023-05-20T21:56:08.001Z,99885.22
2023-05-20T21:58:42.688Z,99883.75
2023-05-20T22:01:12.847Z,99900.03
2023-05-20T22:03:42.644Z,99899.22
2023-05-20T22:06:13.057Z,99903.13
2023-05-20T22:08:43.179Z,99912.25
2023-05-20T22:11:13.766Z,99927.44
2023-05-20T22:13:45.102Z,99928.94
2023-05-20T22:16:16.209Z,99923.31
2023-05-20T22:18:46.223Z,99926.84
2023-05-20T22:21:19.252Z,99930.81
2023-05-20T22:23:49.731Z,99925.03
2023-05-20T22:26:21.240Z,99915.69
2023-05-20T22:28:50.987Z,99925.69
2023-05-20T22:31:20.771Z,99930.63
2023-05-20T22:33:51.078Z,99918.16
2023-05-20T22:36:25.901Z,99937.31
2023-05-20T22:38:57.186Z,99930.84
2023-05-20T22:41:27.930Z,99949.34
2023-05-20T22:43:58.777Z,99955.56
2023-05-20T22:46:32.104Z,99954.34
2023-05-20T22:49:03.240Z,99954.13
2023-05-20T22:51:35.826Z,99959.75
2023-05-20T22:54:05.546Z,99964.31
2023-05-20T22:56:36.057Z,99959.13
2023-05-20T22:59:05.793Z,99959.13
2023-05-20T23:01:35.656Z,99947.72
2023-05-20T23:04:09.272Z,99939.38
2023-05-20T23:06:39.663Z,99939.38
2023-05-20T23:09:12.970Z,99945.59
2023-05-20T23:11:42.795Z,99942.06
2023-05-20T23:14:12.569Z,99931.69
2023-05-20T23:16:43.602Z,99939.56
2023-05-20T23:19:13.364Z,99946.63
2023-05-20T23:21:43.187Z,99940.00
2023-05-20T23:24:13.936Z,99930.03
2023-05-20T23:26:44.033Z,99918.16
2023-05-20T23:29:13.741Z,99928.56
2023-05-20T23:31:43.455Z,99940.78
2023-05-20T23:34:13.728Z,99934.97
2023-05-20T23:36:43.747Z,99932.28
2023-05-20T23:39:15.604Z,99922.53
2023-05-20T23:41:46.882Z,99941.66
2023-05-20T23:44:16.617Z,99944.13
2023-05-20T23:46:46.410Z,99934.38
2023-05-20T23:49:16.590Z,99928.56
2023-05-20T23:51:47.007Z,99935.38
2023-05-20T23:54:18.209Z,99928.91
2023-05-20T23:56:48.759Z,99923.75
2023-05-20T23:59:19.766Z,99921.88
